Time,TemperatureF,DewpointF,PressureIn,WindDirection,WindDirectionDegrees,WindSpeedMPH,WindSpeedGustMPH,Humidity,HourlyPrecipIn,Conditions,Clouds,dailyrainin,SolarRadiationWatts/m^2,SoftwareType,DateUTC
2013-01-30 00:03:00,6.5,2.7,30.18,NNW,336,19.0,26.0,84,0.00,,,0.00,0.00,VWS V14.00,2013-01-30 06:03:00,
2013-01-30 00:08:00,6.4,2.6,30.18,NW,318,19.0,29.0,84,0.00,,,0.00,0.00,VWS V14.00,2013-01-30 06:08:00,
2013-01-30 00:13:00,6.4,2.6,30.18,NW,322,20.0,29.0,84,0.00,,,0.00,0.00,VWS V14.00,2013-01-30 06:13:00,
2013-01-30 00:18:00,6.1,2.3,30.18,NW,315,19.0,29.0,84,0.00,,,0.00,0.00,VWS V14.00,2013-01-30 06:18:00,
2013-01-30 00:23:00,5.8,2.0,30.19,NW,326,16.0,29.0,84,0.00,,,0.00,0.00,VWS V14.00,2013-01-30 06:23:00,
2013-01-30 00:28:00,5.5,1.5,30.19,NW,319,17.0,29.0,83,0.00,,,0.00,0.00,VWS V14.00,2013-01-30 06:28:00,
2013-01-30 00:34:00,5.1,1.3,30.19,NW,324,21.0,25.0,84,0.00,,,0.00,0.00,VWS V14.00,2013-01-30 06:34:00,
2013-01-30 00:39:00,4.4,0.4,30.19,NW,310,19.0,27.0,83,0.00,,,0.00,0.00,VWS V14.00,2013-01-30 06:39:00,
2013-01-30 00:44:00,4.2,0.4,30.19,NW,310,19.0,27.0,84,0.00,,,0.00,0.00,VWS V14.00,2013-01-30 06:44:00,
2013-01-30 00:49:00,3.5,-0.5,30.19,NW,323,19.0,27.0,83,0.00,,,0.00,0.00,VWS V14.00,2013-01-30 06:49:00,
2013-01-30 00:54:00,3.1,-0.9,30.19,NW,319,21.0,27.0,83,0.00,,,0.00,0.00,VWS V14.00,2013-01-30 06:54:00,
2013-01-30 00:59:00,3.1,-0.6,30.19,NW,323,17.0,21.0,84,0.00,,,0.00,0.00,VWS V14.00,2013-01-30 06:59:00,
2013-01-30 01:04:00,2.9,-0.8,30.19,NW,311,18.0,25.0,84,0.00,,,0.00,0.00,VWS V14.00,2013-01-30 07:04:00,
2013-01-30 01:09:00,2.0,-2.2,30.19,WNW,302,20.0,25.0,82,0.00,,,0.00,0.00,VWS V14.00,2013-01-30 07:09:00,
2013-01-30 01:14:00,1.7,-2.3,30.18,NNW,327,24.0,25.0,83,0.00,,,0.00,0.00,VWS V14.00,2013-01-30 07:14:00,
2013-01-30 01:19:00,1.5,-2.5,30.18,NW,309,22.0,25.0,83,0.00,,,0.00,0.00,VWS V14.00,2013-01-30 07:19:00,
2013-01-30 01:24:00,0.9,-3.3,30.18,NW,317,25.0,26.0,82,0.00,,,0.00,0.00,VWS V14.00,2013-01-30 07:24:00,
2013-01-30 01:29:00,0.5,-3.7,30.18,WNW,303,22.0,25.0,82,0.00,,,0.00,0.00,VWS V14.00,2013-01-30 07:29:00,
2013-01-30 01:34:00,0.5,-3.7,30.18,NW,321,22.0,26.0,82,0.00,,,0.00,0.00,VWS V14.00,2013-01-30 07:34:00,
2013-01-30 01:39:00,0.3,-3.9,30.18,NNW,327,13.0,27.0,82,0.00,,OVC019,0.00,0.00,VWS V14.00,2013-01-30 07:39:00,
2013-01-30 01:44:00,0.1,-4.2,30.18,NW,323,19.0,30.0,82,0.00,,OVC019,0.00,0.00,VWS V14.00,2013-01-30 07:44:00,
2013-01-30 01:49:00,-0.1,-4.5,30.18,NW,317,27.0,30.0,81,0.00,,OVC019,0.00,0.00,VWS V14.00,2013-01-30 07:49:00,
2013-01-30 01:54:00,-0.5,-5.2,30.18,NW,319,19.0,30.0,80,0.00,,OVC019,0.00,0.00,VWS V14.00,2013-01-30 07:54:00,
2013-01-30 01:59:00,-0.7,-5.4,30.19,NNW,330,16.0,20.0,80,0.00,,OVC019,0.00,0.00,VWS V14.00,2013-01-30 07:59:00,
2013-01-30 02:04:00,-0.7,-5.4,30.19,NW,318,15.0,21.0,80,0.00,,OVC019,0.00,0.00,VWS V14.00,2013-01-30 08:04:00,
2013-01-30 02:09:00,-0.9,-5.6,30.19,NW,319,18.0,24.0,80,0.00,,OVC019,0.00,0.00,VWS V14.00,2013-01-30 08:09:00,
2013-01-30 02:14:00,-1.0,-5.7,30.19,NW,321,20.0,24.0,80,0.00,,OVC019,0.00,0.00,VWS V14.00,2013-01-30 08:14:00,
2013-01-30 02:19:00,-1.2,-5.9,30.18,NW,326,24.0,24.0,80,0.00,,OVC019,0.00,0.00,VWS V14.00,2013-01-30 08:19:00,
2013-01-30 02:24:00,-1.2,-5.6,30.18,NW,326,17.0,25.0,81,0.00,,OVC019,0.00,0.00,VWS V14.00,2013-01-30 08:24:00,
2013-01-30 02:29:00,-1.2,-5.6,30.18,NNW,331,16.0,18.0,81,0.00,,OVC019,0.00,0.00,VWS V14.00,2013-01-30 08:29:00,
2013-01-30 02:34:00,-1.4,-6.1,30.17,NW,315,22.0,27.0,80,0.00,,OVC019,0.00,0.00,VWS V14.00,2013-01-30 08:34:00,
2013-01-30 02:39:00,-1.7,-6.3,30.17,NNW,330,25.0,28.0,80,0.00,,OVC017,0.00,0.00,VWS V14.00,2013-01-30 08:39:00,
2013-01-30 02:44:00,-1.9,-6.8,30.17,NW,319,20.0,28.0,79,0.00,,OVC017,0.00,0.00,VWS V14.00,2013-01-30 08:44:00,
2013-01-30 02:49:00,-2.1,-6.7,30.18,NW,324,17.0,28.0,80,0.00,,OVC017,0.00,0.00,VWS V14.00,2013-01-30 08:49:00,
2013-01-30 02:55:00,-2.2,-6.8,30.17,NW,321,15.0,28.0,80,0.00,,OVC017,0.00,0.00,VWS V14.00,2013-01-30 08:55:00,
2013-01-30 03:00:00,-2.2,-6.8,30.17,NNW,334,19.0,19.0,80,0.00,,OVC017,0.00,0.00,VWS V14.00,2013-01-30 09:00:00,
2013-01-30 03:05:00,-2.3,-6.9,30.17,NNW,334,19.0,19.0,80,0.00,,OVC017,0.00,0.00,VWS V14.00,2013-01-30 09:05:00,
2013-01-30 03:10:00,-2.4,-7.0,30.17,NNW,336,12.0,20.0,80,0.00,,OVC017,0.00,0.00,VWS V14.00,2013-01-30 09:10:00,
2013-01-30 03:15:00,-2.4,-6.8,30.17,NNW,334,19.0,21.0,81,0.00,,OVC017,0.00,0.00,VWS V14.00,2013-01-30 09:15:00,
2013-01-30 03:20:00,-2.5,-6.9,30.17,NW,317,15.0,21.0,81,0.00,,OVC017,0.00,0.00,VWS V14.00,2013-01-30 09:20:00,
2013-01-30 03:25:00,-2.6,-7.0,30.17,NW,316,10.0,21.0,81,0.00,,OVC017,0.00,0.00,VWS V14.00,2013-01-30 09:25:00,
2013-01-30 03:30:00,-2.7,-7.1,30.16,NNW,330,12.0,16.0,81,0.00,,OVC017,0.00,0.00,VWS V14.00,2013-01-30 09:30:00,
2013-01-30 03:35:00,-3.0,-7.4,30.16,NW,318,17.0,20.0,81,0.00,,OVC017,0.00,0.00,VWS V14.00,2013-01-30 09:35:00,
2013-01-30 03:40:00,-3.1,-7.7,30.16,NW,314,16.0,20.0,80,0.00,,OVC017,0.00,0.00,VWS V14.00,2013-01-30 09:40:00,
2013-01-30 03:45:00,-3.2,-7.6,30.16,NNW,328,17.0,20.0,81,0.00,,OVC017,0.00,0.00,VWS V14.00,2013-01-30 09:45:00,
2013-01-30 03:50:00,-3.3,-7.9,30.16,NW,315,12.0,22.0,80,0.00,,OVC017,0.00,0.00,VWS V14.00,2013-01-30 09:50:00,
2013-01-30 03:55:00,-3.4,-8.0,30.15,NW,318,14.0,22.0,80,0.00,,OVC017,0.00,0.00,VWS V14.00,2013-01-30 09:55:00,
2013-01-30 04:00:00,-3.5,-7.9,30.15,NNW,333,15.0,17.0,81,0.00,,OVC017,0.00,0.00,VWS V14.00,2013-01-30 10:00:00,
2013-01-30 04:05:00,-3.5,-7.9,30.14,NW,319,13.0,19.0,81,0.00,,OVC017,0.00,0.00,VWS V14.00,2013-01-30 10:05:00,
2013-01-30 04:10:00,-3.5,-7.9,30.14,NW,324,13.0,19.0,81,0.00,,OVC017,0.00,0.00,VWS V14.00,2013-01-30 10:10:00,
2013-01-30 04:15:00,-3.5,-7.6,30.13,NW,317,16.0,19.0,82,0.00,,OVC017,0.00,0.00,VWS V14.00,2013-01-30 10:15:00,
2013-01-30 04:20:00,-3.4,-7.5,30.13,NW,320,17.0,19.0,82,0.00,,OVC017,0.00,0.00,VWS V14.00,2013-01-30 10:20:00,
2013-01-30 04:25:00,-3.4,-7.5,30.13,NW,320,17.0,19.0,82,0.00,,OVC017,0.00,0.00,VWS V14.00,2013-01-30 10:25:00,
2013-01-30 04:30:00,-3.4,-7.5,30.14,NW,304,16.0,17.0,82,0.00,,OVC017,0.00,0.00,VWS V14.00,2013-01-30 10:30:00,
2013-01-30 04:35:00,-3.4,-7.5,30.14,NW,309,17.0,21.0,82,0.00,,OVC017,0.00,0.00,VWS V14.00,2013-01-30 10:35:00,
2013-01-30 04:40:00,-3.3,-7.4,30.13,NW,318,17.0,23.0,82,0.00,,OVC070,0.00,0.00,VWS V14.00,2013-01-30 10:40:00,
2013-01-30 04:45:00,-3.2,-7.3,30.13,NW,323,19.0,23.0,82,0.00,,OVC070,0.00,0.00,VWS V14.00,2013-01-30 10:45:00,
2013-01-30 04:51:00,-3.1,-7.2,30.13,NW,311,17.0,23.0,82,0.00,,OVC095,0.00,0.00,VWS V14.00,2013-01-30 10:51:00,
2013-01-30 04:56:00,-3.0,-7.1,30.13,NW,318,16.0,23.0,82,0.00,,OVC095,0.00,0.00,VWS V14.00,2013-01-30 10:56:00,
2013-01-30 05:01:00,-2.9,-7.0,30.13,NW,315,20.0,20.0,82,0.00,,OVC095,0.00,0.00,VWS V14.00,2013-01-30 11:01:00,
2013-01-30 05:06:00,-2.7,-6.8,30.13,NW,313,17.0,21.0,82,0.00,,OVC095,0.00,0.00,VWS V14.00,2013-01-30 11:06:00,
2013-01-30 05:11:00,-2.6,-6.7,30.13,NW,313,17.0,21.0,82,0.00,,OVC095,0.00,0.00,VWS V14.00,2013-01-30 11:11:00,
2013-01-30 05:16:00,-2.5,-6.6,30.13,NW,317,17.0,21.0,82,0.00,,OVC095,0.00,0.00,VWS V14.00,2013-01-30 11:16:00,
2013-01-30 05:21:00,-2.5,-6.6,30.14,NW,319,17.0,22.0,82,0.00,,OVC095,0.00,0.00,VWS V14.00,2013-01-30 11:21:00,
2013-01-30 05:26:00,-2.5,-6.6,30.13,NW,319,18.0,22.0,82,0.00,,OVC095,0.00,0.00,VWS V14.00,2013-01-30 11:26:00,
2013-01-30 05:31:00,-2.6,-7.0,30.13,NW,319,22.0,26.0,81,0.00,,OVC095,0.00,0.00,VWS V14.00,2013-01-30 11:31:00,
2013-01-30 05:36:00,-2.8,-7.2,30.13,NW,318,19.0,26.0,81,0.00,,OVC095,0.00,0.00,VWS V14.00,2013-01-30 11:36:00,
2013-01-30 05:41:00,-2.8,-7.2,30.13,NW,323,23.0,26.0,81,0.00,,OVC015,0.00,0.00,VWS V14.00,2013-01-30 11:41:00,
2013-01-30 05:46:00,-3.0,-7.4,30.12,NW,312,21.0,27.0,81,0.00,,OVC015,0.00,0.00,VWS V14.00,2013-01-30 11:46:00,
2013-01-30 05:51:00,-3.1,-7.5,30.12,NW,314,20.0,27.0,81,0.00,,OVC015,0.00,0.00,VWS V14.00,2013-01-30 11:51:00,
2013-01-30 05:56:00,-3.1,-7.5,30.12,NW,315,15.0,27.0,81,0.00,,OVC015,0.00,0.00,VWS V14.00,2013-01-30 11:56:00,
2013-01-30 06:01:00,-3.1,-7.5,30.12,NW,320,20.0,25.0,81,0.00,,OVC015,0.00,0.00,VWS V14.00,2013-01-30 12:01:00,
2013-01-30 06:06:00,-3.1,-7.5,30.12,NW,309,15.0,25.0,81,0.00,,OVC015,0.00,0.00,VWS V14.00,2013-01-30 12:06:00,
2013-01-30 06:11:00,-3.0,-7.4,30.12,NW,321,19.0,25.0,81,0.00,,OVC015,0.00,0.00,VWS V14.00,2013-01-30 12:11:00,
2013-01-30 06:16:00,-3.0,-7.4,30.13,NW,325,14.0,25.0,81,0.00,,OVC015,0.00,0.00,VWS V14.00,2013-01-30 12:16:00,
2013-01-30 06:21:00,-3.1,-7.5,30.12,NW,311,13.0,25.0,81,0.00,,OVC015,0.00,0.00,VWS V14.00,2013-01-30 12:21:00,
2013-01-30 06:26:00,-3.1,-7.5,30.12,NW,325,19.0,25.0,81,0.00,,OVC015,0.00,0.00,VWS V14.00,2013-01-30 12:26:00,
2013-01-30 06:31:00,-3.2,-7.6,30.12,NW,313,12.0,22.0,81,0.00,,OVC015,0.00,0.00,VWS V14.00,2013-01-30 12:31:00,
2013-01-30 06:36:00,-3.2,-7.6,30.12,NW,320,17.0,22.0,81,0.00,,OVC015,0.00,0.00,VWS V14.00,2013-01-30 12:36:00,
2013-01-30 06:41:00,-3.2,-7.6,30.12,NW,317,20.0,22.0,81,0.00,,OVC016,0.00,0.00,VWS V14.00,2013-01-30 12:41:00,
2013-01-30 06:46:00,-3.2,-7.6,30.12,NW,314,18.0,22.0,81,0.00,,OVC016,0.00,0.00,VWS V14.00,2013-01-30 12:46:00,
2013-01-30 06:51:00,-3.4,-7.8,30.13,NW,309,12.0,22.0,81,0.00,,OVC016,0.00,0.00,VWS V14.00,2013-01-30 12:51:00,
2013-01-30 06:57:00,-3.4,-7.8,30.13,NW,317,14.0,22.0,81,0.00,,OVC016,0.00,0.00,VWS V14.00,2013-01-30 12:57:00,
2013-01-30 07:02:00,-3.4,-7.8,30.13,NW,321,10.0,17.0,81,0.00,,OVC016,0.00,0.00,VWS V14.00,2013-01-30 13:02:00,
2013-01-30 07:07:00,-3.5,-7.9,30.13,NW,319,18.0,22.0,81,0.00,,OVC016,0.00,0.00,VWS V14.00,2013-01-30 13:07:00,
2013-01-30 07:12:00,-3.7,-8.1,30.14,NW,321,13.0,22.0,81,0.00,,OVC014,0.00,0.00,VWS V14.00,2013-01-30 13:12:00,
2013-01-30 07:17:00,-3.9,-8.5,30.14,NW,318,10.0,22.0,80,0.00,,OVC014,0.00,0.00,VWS V14.00,2013-01-30 13:17:00,
2013-01-30 07:22:00,-4.2,-8.8,30.14,NW,318,10.0,22.0,80,0.00,,OVC014,0.00,0.00,VWS V14.00,2013-01-30 13:22:00,
2013-01-30 07:27:00,-4.5,-9.1,30.14,NW,315,15.0,22.0,80,0.00,,OVC014,0.00,0.00,VWS V14.00,2013-01-30 13:27:00,
2013-01-30 07:32:00,-4.9,-9.5,30.14,NW,322,20.0,20.0,80,0.00,,OVC014,0.00,0.00,VWS V14.00,2013-01-30 13:32:00,
2013-01-30 07:37:00,-5.4,-10.0,30.14,NW,310,12.0,21.0,80,0.00,,OVC014,0.00,0.00,VWS V14.00,2013-01-30 13:37:00,
2013-01-30 07:42:00,-5.7,-10.3,30.14,NW,317,13.0,21.0,80,0.00,,OVC015,0.00,0.00,VWS V14.00,2013-01-30 13:42:00,
2013-01-30 07:47:00,-6.0,-10.8,30.14,NW,325,14.0,21.0,79,0.00,,OVC015,0.00,0.00,VWS V14.00,2013-01-30 13:47:00,
2013-01-30 07:52:00,-6.1,-10.9,30.14,NW,313,13.0,22.0,79,0.00,,OVC015,0.00,0.00,VWS V14.00,2013-01-30 13:52:00,
2013-01-30 07:57:00,-6.2,-10.8,30.14,NW,321,14.0,22.0,80,0.00,,OVC015,0.00,0.00,VWS V14.00,2013-01-30 13:57:00,
2013-01-30 08:02:00,-6.3,-10.9,30.15,NW,318,11.0,17.0,80,0.00,,OVC015,0.00,0.00,VWS V14.00,2013-01-30 14:02:00,
2013-01-30 08:07:00,-6.5,-11.0,30.15,NW,317,9.0,17.0,80,0.00,,OVC015,0.00,5.00,VWS V14.00,2013-01-30 14:07:00,
2013-01-30 08:12:00,-6.7,-11.2,30.15,NW,311,14.0,17.0,80,0.00,,OVC015,0.00,7.00,VWS V14.00,2013-01-30 14:12:00,
2013-01-30 08:17:00,-6.8,-11.3,30.15,NW,314,13.0,17.0,80,0.00,,OVC015,0.00,9.00,VWS V14.00,2013-01-30 14:17:00,
2013-01-30 08:22:00,-7.0,-11.5,30.15,NW,322,17.0,20.0,80,0.00,,OVC015,0.00,16.00,VWS V14.00,2013-01-30 14:22:00,
2013-01-30 08:27:00,-7.1,-11.6,30.14,NW,319,14.0,20.0,80,0.00,,OVC015,0.00,21.00,VWS V14.00,2013-01-30 14:27:00,
2013-01-30 08:32:00,-7.2,-11.7,30.15,NW,317,12.0,18.0,80,0.00,,OVC015,0.00,25.00,VWS V14.00,2013-01-30 14:32:00,
2013-01-30 08:37:00,-7.3,-11.8,30.14,NW,309,15.0,19.0,80,0.00,,OVC015,0.00,33.00,VWS V14.00,2013-01-30 14:37:00,
2013-01-30 08:42:00,-7.4,-11.9,30.15,NW,320,20.0,22.0,80,0.00,,OVC095,0.00,35.00,VWS V14.00,2013-01-30 14:42:00,
2013-01-30 08:47:00,-7.5,-12.3,30.15,NW,323,9.0,22.0,79,0.00,,OVC095,0.00,30.00,VWS V14.00,2013-01-30 14:47:00,
2013-01-30 08:52:00,-7.8,-12.6,30.15,NW,309,17.0,22.0,79,0.00,,OVC095,0.00,28.00,VWS V14.00,2013-01-30 14:52:00,
2013-01-30 08:57:00,-8.1,-12.9,30.15,NW,309,13.0,22.0,79,0.00,,OVC095,0.00,26.00,VWS V14.00,2013-01-30 14:57:00,
2013-01-30 09:03:00,-8.3,-13.3,30.14,NW,316,13.0,20.0,78,0.00,,OVC095,0.00,26.00,VWS V14.00,2013-01-30 15:03:00,
2013-01-30 09:08:00,-8.7,-13.7,30.14,NW,318,12.0,20.0,78,0.00,,OVC095,0.00,28.00,VWS V14.00,2013-01-30 15:08:00,
2013-01-30 09:13:00,-8.8,-13.8,30.14,NW,309,14.0,20.0,78,0.00,,OVC095,0.00,60.00,VWS V14.00,2013-01-30 15:13:00,
2013-01-30 09:18:00,-8.7,-13.4,30.15,NW,318,12.0,20.0,79,0.00,,OVC095,0.00,72.00,VWS V14.00,2013-01-30 15:18:00,
2013-01-30 09:23:00,-8.6,-13.3,30.15,NW,325,11.0,20.0,79,0.00,,OVC095,0.00,104.00,VWS V14.00,2013-01-30 15:23:00,
2013-01-30 09:28:00,-8.5,-13.5,30.14,NW,326,11.0,20.0,78,0.00,,OVC095,0.00,135.00,VWS V14.00,2013-01-30 15:28:00,
2013-01-30 09:33:00,-8.5,-13.8,30.14,NW,313,13.0,20.0,77,0.00,,OVC095,0.00,149.00,VWS V14.00,2013-01-30 15:33:00,
2013-01-30 09:38:00,-8.4,-13.9,30.15,NW,320,10.0,20.0,76,0.00,,OVC095,0.00,176.00,VWS V14.00,2013-01-30 15:38:00,
2013-01-30 09:43:00,-8.2,-13.7,30.15,NW,319,13.0,20.0,76,0.00,,BKN110,0.00,251.00,VWS V14.00,2013-01-30 15:43:00,
2013-01-30 09:48:00,-8.1,-13.6,30.15,NW,323,10.0,20.0,76,0.00,,BKN110,0.00,274.00,VWS V14.00,2013-01-30 15:48:00,
2013-01-30 09:53:00,-8.2,-13.7,30.15,NW,317,11.0,20.0,76,0.00,,BKN110,0.00,134.00,VWS V14.00,2013-01-30 15:53:00,
2013-01-30 09:58:00,-8.3,-13.8,30.15,NNW,329,13.0,20.0,76,0.00,,BKN110,0.00,267.00,VWS V14.00,2013-01-30 15:58:00,
2013-01-30 10:03:00,-8.2,-13.7,30.15,NW,318,10.0,14.0,76,0.00,,BKN110,0.00,137.00,VWS V14.00,2013-01-30 16:03:00,
2013-01-30 10:08:00,-8.5,-14.0,30.15,NW,323,12.0,15.0,76,0.00,,BKN110,0.00,116.00,VWS V14.00,2013-01-30 16:08:00,
2013-01-30 10:13:00,-8.5,-13.8,30.15,NW,323,7.0,15.0,77,0.00,,BKN110,0.00,91.00,VWS V14.00,2013-01-30 16:13:00,
2013-01-30 10:18:00,-8.4,-13.7,30.16,NW,318,10.0,15.0,77,0.00,,BKN110,0.00,130.00,VWS V14.00,2013-01-30 16:18:00,
2013-01-30 10:23:00,-7.7,-13.0,30.16,NW,319,11.0,15.0,77,0.00,,BKN110,0.00,332.00,VWS V14.00,2013-01-30 16:23:00,
2013-01-30 10:28:00,-7.3,-12.9,30.15,NNW,331,11.0,16.0,76,0.00,,BKN110,0.00,232.00,VWS V14.00,2013-01-30 16:28:00,
2013-01-30 10:34:00,-7.5,-13.3,30.15,NW,323,12.0,18.0,75,0.00,,BKN110,0.00,225.00,VWS V14.00,2013-01-30 16:34:00,
2013-01-30 10:39:00,-7.2,-13.0,30.15,NNW,329,11.0,18.0,75,0.00,,BKN110,0.00,362.00,VWS V14.00,2013-01-30 16:39:00,
2013-01-30 10:44:00,-7.2,-13.0,30.15,NNW,327,11.0,18.0,75,0.00,,SCT075,0.00,283.00,VWS V14.00,2013-01-30 16:44:00,
2013-01-30 10:49:00,-7.1,-12.9,30.14,NNW,331,12.0,18.0,75,0.00,,SCT075,0.00,327.00,VWS V14.00,2013-01-30 16:49:00,
2013-01-30 10:54:00,-6.8,-12.6,30.14,NW,314,12.0,18.0,75,0.00,,SCT075,0.00,369.00,VWS V14.00,2013-01-30 16:54:00,
2013-01-30 10:59:00,-6.8,-12.6,30.14,NNW,331,12.0,13.0,75,0.00,,SCT075,0.00,334.00,VWS V14.00,2013-01-30 16:59:00,
2013-01-30 11:04:00,-6.8,-12.6,30.14,NW,319,14.0,18.0,75,0.00,,SCT075,0.00,341.00,VWS V14.00,2013-01-30 17:04:00,
2013-01-30 11:09:00,-6.7,-12.5,30.14,NNW,335,14.0,19.0,75,0.00,,SCT075,0.00,367.00,VWS V14.00,2013-01-30 17:09:00,
2013-01-30 11:14:00,-6.6,-12.7,30.15,NW,314,9.0,19.0,74,0.00,,SCT075,0.00,380.00,VWS V14.00,2013-01-30 17:14:00,
2013-01-30 11:19:00,-6.3,-12.4,30.15,NNW,333,14.0,19.0,74,0.00,,SCT075,0.00,355.00,VWS V14.00,2013-01-30 17:19:00,
2013-01-30 11:24:00,-6.0,-11.9,30.15,NW,321,11.0,19.0,75,0.00,,SCT075,0.00,334.00,VWS V14.00,2013-01-30 17:24:00,
2013-01-30 11:29:00,-6.0,-12.1,30.15,NW,325,13.0,15.0,74,0.00,,SCT075,0.00,362.00,VWS V14.00,2013-01-30 17:29:00,
2013-01-30 11:34:00,-5.9,-12.3,30.14,NW,326,12.0,16.0,73,0.00,,SCT075,0.00,360.00,VWS V14.00,2013-01-30 17:34:00,
2013-01-30 11:39:00,-5.6,-12.0,30.14,NNW,340,17.0,17.0,73,0.00,,CLR,0.00,396.00,VWS V14.00,2013-01-30 17:39:00,
2013-01-30 11:44:00,-5.5,-11.9,30.14,NNW,343,16.0,19.0,73,0.00,,CLR,0.00,418.00,VWS V14.00,2013-01-30 17:44:00,
2013-01-30 11:49:00,-5.5,-11.9,30.14,NNW,328,14.0,19.0,73,0.00,,CLR,0.00,429.00,VWS V14.00,2013-01-30 17:49:00,
2013-01-30 11:54:00,-5.2,-11.3,30.13,NNW,336,15.0,19.0,74,0.00,,CLR,0.00,432.00,VWS V14.00,2013-01-30 17:54:00,
2013-01-30 11:59:00,-5.5,-11.9,30.13,NW,322,13.0,17.0,73,0.00,,CLR,0.00,445.00,VWS V14.00,2013-01-30 17:59:00,
2013-01-30 12:04:00,-5.4,-11.5,30.13,NW,322,14.0,19.0,74,0.00,,CLR,0.00,446.00,VWS V14.00,2013-01-30 18:04:00,
2013-01-30 12:10:00,-5.5,-11.9,30.14,NW,323,11.0,19.0,73,0.00,,CLR,0.00,452.00,VWS V14.00,2013-01-30 18:10:00,
2013-01-30 12:15:00,-5.3,-11.4,30.13,NW,311,10.0,19.0,74,0.00,,CLR,0.00,452.00,VWS V14.00,2013-01-30 18:15:00,
2013-01-30 12:20:00,-5.4,-11.5,30.13,NW,311,12.0,19.0,74,0.00,,CLR,0.00,454.00,VWS V14.00,2013-01-30 18:20:00,
2013-01-30 12:25:00,-5.1,-11.2,30.13,NW,315,14.0,19.0,74,0.00,,CLR,0.00,459.00,VWS V14.00,2013-01-30 18:25:00,
2013-01-30 12:30:00,-5.3,-11.7,30.13,NW,323,14.0,16.0,73,0.00,,CLR,0.00,466.00,VWS V14.00,2013-01-30 18:30:00,
2013-01-30 12:35:00,-4.8,-11.2,30.12,NNW,340,15.0,18.0,73,0.00,,CLR,0.00,468.00,VWS V14.00,2013-01-30 18:35:00,
2013-01-30 12:40:00,-5.0,-11.7,30.12,NW,326,10.0,18.0,72,0.00,,CLR,0.00,466.00,VWS V14.00,2013-01-30 18:40:00,
2013-01-30 12:45:00,-5.0,-11.7,30.12,NNW,339,14.0,18.0,72,0.00,,CLR,0.00,468.00,VWS V14.00,2013-01-30 18:45:00,
2013-01-30 12:50:00,-5.1,-11.8,30.12,NW,323,12.0,18.0,72,0.00,,CLR,0.00,466.00,VWS V14.00,2013-01-30 18:50:00,
2013-01-30 12:55:00,-5.2,-11.9,30.12,NNW,328,13.0,19.0,72,0.00,,CLR,0.00,468.00,VWS V14.00,2013-01-30 18:55:00,
2013-01-30 13:00:00,-5.2,-12.2,30.12,NW,313,18.0,21.0,71,0.00,,CLR,0.00,473.00,VWS V14.00,2013-01-30 19:00:00,
2013-01-30 13:05:00,-5.2,-12.2,30.12,NW,323,20.0,21.0,71,0.00,,CLR,0.00,473.00,VWS V14.00,2013-01-30 19:05:00,
2013-01-30 13:10:00,-5.2,-12.2,30.12,NW,317,14.0,21.0,71,0.00,,CLR,0.00,471.00,VWS V14.00,2013-01-30 19:10:00,
2013-01-30 13:15:00,-4.9,-12.2,30.12,NW,317,14.0,21.0,70,0.00,,CLR,0.00,471.00,VWS V14.00,2013-01-30 19:15:00,
2013-01-30 13:20:00,-5.1,-12.1,30.11,NW,324,17.0,21.0,71,0.00,,CLR,0.00,469.00,VWS V14.00,2013-01-30 19:20:00,
2013-01-30 13:25:00,-5.0,-12.3,30.11,NW,323,17.0,21.0,70,0.00,,CLR,0.00,464.00,VWS V14.00,2013-01-30 19:25:00,
2013-01-30 13:30:00,-5.0,-12.0,30.11,NNW,327,12.0,16.0,71,0.00,,CLR,0.00,464.00,VWS V14.00,2013-01-30 19:30:00,
2013-01-30 13:35:00,-4.6,-11.6,30.11,NNW,329,15.0,22.0,71,0.00,,CLR,0.00,461.00,VWS V14.00,2013-01-30 19:35:00,
2013-01-30 13:40:00,-4.6,-11.6,30.11,NW,315,20.0,22.0,71,0.00,,CLR,0.00,455.00,VWS V14.00,2013-01-30 19:40:00,
2013-01-30 13:45:00,-4.7,-11.4,30.11,NW,321,13.0,22.0,72,0.00,,CLR,0.00,455.00,VWS V14.00,2013-01-30 19:45:00,
2013-01-30 13:50:00,-4.8,-11.5,30.11,NW,319,12.0,22.0,72,0.00,,CLR,0.00,448.00,VWS V14.00,2013-01-30 19:50:00,
2013-01-30 13:55:00,-4.4,-10.8,30.11,NNW,332,13.0,22.0,73,0.00,,CLR,0.00,446.00,VWS V14.00,2013-01-30 19:55:00,
2013-01-30 14:00:00,-4.6,-11.3,30.10,NW,317,14.0,18.0,72,0.00,,CLR,0.00,439.00,VWS V14.00,2013-01-30 20:00:00,
2013-01-30 14:05:00,-4.4,-11.1,30.10,NW,315,14.0,18.0,72,0.00,,CLR,0.00,436.00,VWS V14.00,2013-01-30 20:05:00,
2013-01-30 14:11:00,-4.2,-10.6,30.09,NW,317,14.0,19.0,73,0.00,,CLR,0.00,427.00,VWS V14.00,2013-01-30 20:11:00,
2013-01-30 14:16:00,-4.2,-10.6,30.09,NW,311,17.0,19.0,73,0.00,,CLR,0.00,424.00,VWS V14.00,2013-01-30 20:16:00,
2013-01-30 14:21:00,-4.1,-10.6,30.09,NW,321,12.0,19.0,73,0.00,,CLR,0.00,418.00,VWS V14.00,2013-01-30 20:21:00,
2013-01-30 14:26:00,-4.0,-10.4,30.09,NW,317,10.0,19.0,73,0.00,,CLR,0.00,417.00,VWS V14.00,2013-01-30 20:26:00,
2013-01-30 14:31:00,-4.1,-10.8,30.09,NW,319,12.0,15.0,72,0.00,,CLR,0.00,439.00,VWS V14.00,2013-01-30 20:31:00,
2013-01-30 14:36:00,-3.8,-10.5,30.10,NW,319,16.0,20.0,72,0.00,,CLR,0.00,387.00,VWS V14.00,2013-01-30 20:36:00,
2013-01-30 14:41:00,-4.1,-11.1,30.09,NW,324,13.0,21.0,71,0.00,,CLR,0.00,387.00,VWS V14.00,2013-01-30 20:41:00,
2013-01-30 14:46:00,-3.9,-10.6,30.09,NW,314,16.0,21.0,72,0.00,,CLR,0.00,404.00,VWS V14.00,2013-01-30 20:46:00,
2013-01-30 14:51:00,-4.1,-10.8,30.10,NW,324,13.0,21.0,72,0.00,,CLR,0.00,381.00,VWS V14.00,2013-01-30 20:51:00,
2013-01-30 14:56:00,-4.1,-10.8,30.10,NW,316,17.0,21.0,72,0.00,,CLR,0.00,371.00,VWS V14.00,2013-01-30 20:56:00,
2013-01-30 15:01:00,-4.1,-10.8,30.10,NW,309,17.0,18.0,72,0.00,,CLR,0.00,364.00,VWS V14.00,2013-01-30 21:01:00,
2013-01-30 15:06:00,-4.4,-11.1,30.10,NW,315,14.0,19.0,72,0.00,,CLR,0.00,322.00,VWS V14.00,2013-01-30 21:06:00,
2013-01-30 15:11:00,-4.2,-10.9,30.10,WNW,302,14.0,19.0,72,0.00,,CLR,0.00,330.00,VWS V14.00,2013-01-30 21:11:00,
2013-01-30 15:16:00,-4.4,-11.1,30.10,NW,314,14.0,20.0,72,0.00,,CLR,0.00,332.00,VWS V14.00,2013-01-30 21:16:00,
2013-01-30 15:21:00,-4.3,-11.0,30.10,NW,317,13.0,20.0,72,0.00,,CLR,0.00,322.00,VWS V14.00,2013-01-30 21:21:00,
2013-01-30 15:26:00,-4.2,-10.6,30.10,NW,311,11.0,20.0,73,0.00,,CLR,0.00,309.00,VWS V14.00,2013-01-30 21:26:00,
2013-01-30 15:31:00,-4.4,-11.1,30.11,NW,319,15.0,17.0,72,0.00,,CLR,0.00,297.00,VWS V14.00,2013-01-30 21:31:00,
2013-01-30 15:36:00,-4.5,-11.2,30.11,NW,323,17.0,19.0,72,0.00,,CLR,0.00,287.00,VWS V14.00,2013-01-30 21:36:00,
2013-01-30 15:41:00,-4.6,-11.3,30.10,WNW,302,15.0,19.0,72,0.00,,CLR,0.00,276.00,VWS V14.00,2013-01-30 21:41:00,
2013-01-30 15:46:00,-4.9,-11.9,30.10,NW,309,15.0,23.0,71,0.00,,CLR,0.00,267.00,VWS V14.00,2013-01-30 21:46:00,
2013-01-30 15:51:00,-4.9,-11.9,30.10,NW,317,18.0,23.0,71,0.00,,CLR,0.00,257.00,VWS V14.00,2013-01-30 21:51:00,
2013-01-30 15:56:00,-4.8,-12.1,30.11,NW,319,12.0,23.0,70,0.00,,CLR,0.00,243.00,VWS V14.00,2013-01-30 21:56:00,
2013-01-30 16:01:00,-5.0,-12.6,30.11,NW,325,18.0,19.0,69,0.00,,CLR,0.00,218.00,VWS V14.00,2013-01-30 22:01:00,
2013-01-30 16:06:00,-5.1,-12.6,30.11,NW,313,20.0,22.0,69,0.00,,CLR,0.00,186.00,VWS V14.00,2013-01-30 22:06:00,
2013-01-30 16:11:00,-5.0,-12.3,30.11,NW,323,13.0,22.0,70,0.00,,CLR,0.00,179.00,VWS V14.00,2013-01-30 22:11:00,
2013-01-30 16:16:00,-5.2,-12.5,30.11,WNW,302,11.0,22.0,70,0.00,,CLR,0.00,153.00,VWS V14.00,2013-01-30 22:16:00,
2013-01-30 16:21:00,-5.4,-12.4,30.11,NW,306,18.0,22.0,71,0.00,,CLR,0.00,127.00,VWS V14.00,2013-01-30 22:21:00,
2013-01-30 16:26:00,-5.5,-12.5,30.11,NW,314,16.0,22.0,71,0.00,,CLR,0.00,139.00,VWS V14.00,2013-01-30 22:26:00,
2013-01-30 16:31:00,-5.8,-13.0,30.11,NW,306,15.0,21.0,70,0.00,,CLR,0.00,134.00,VWS V14.00,2013-01-30 22:31:00,
2013-01-30 16:36:00,-6.0,-13.5,30.11,NW,314,12.0,21.0,69,0.00,,CLR,0.00,128.00,VWS V14.00,2013-01-30 22:36:00,
2013-01-30 16:42:00,-6.0,-13.2,30.12,NW,304,18.0,21.0,70,0.00,,CLR,0.00,113.00,VWS V14.00,2013-01-30 22:42:00,
2013-01-30 16:47:00,-6.2,-13.4,30.11,WNW,295,18.0,21.0,70,0.00,,CLR,0.00,74.00,VWS V14.00,2013-01-30 22:47:00,
2013-01-30 16:52:00,-6.5,-13.7,30.11,WNW,299,15.0,21.0,70,0.00,,CLR,0.00,62.00,VWS V14.00,2013-01-30 22:52:00,
2013-01-30 16:57:00,-6.7,-13.9,30.11,NW,318,15.0,21.0,70,0.00,,CLR,0.00,54.00,VWS V14.00,2013-01-30 22:57:00,
2013-01-30 17:02:00,-6.8,-13.7,30.11,NW,307,14.0,17.0,71,0.00,,CLR,0.00,49.00,VWS V14.00,2013-01-30 23:02:00,
2013-01-30 17:07:00,-6.9,-13.8,30.11,NW,305,12.0,17.0,71,0.00,,CLR,0.00,39.00,VWS V14.00,2013-01-30 23:07:00,
2013-01-30 17:12:00,-7.0,-13.9,30.11,NW,312,10.0,17.0,71,0.00,,CLR,0.00,33.00,VWS V14.00,2013-01-30 23:12:00,
2013-01-30 17:17:00,-7.1,-14.0,30.12,NW,305,9.0,18.0,71,0.00,,CLR,0.00,25.00,VWS V14.00,2013-01-30 23:17:00,
2013-01-30 17:22:00,-7.3,-13.9,30.11,NW,314,12.0,18.0,72,0.00,,CLR,0.00,18.00,VWS V14.00,2013-01-30 23:22:00,
2013-01-30 17:27:00,-7.4,-14.0,30.11,NW,316,8.0,18.0,72,0.00,,CLR,0.00,12.00,VWS V14.00,2013-01-30 23:27:00,
2013-01-30 17:32:00,-7.6,-14.2,30.12,NW,308,14.0,15.0,72,0.00,,CLR,0.00,9.00,VWS V14.00,2013-01-30 23:32:00,
2013-01-30 17:37:00,-7.8,-14.1,30.12,NW,310,10.0,15.0,73,0.00,,CLR,0.00,9.00,VWS V14.00,2013-01-30 23:37:00,
2013-01-30 17:42:00,-7.8,-14.1,30.12,NW,319,13.0,15.0,73,0.00,,CLR,0.00,5.00,VWS V14.00,2013-01-30 23:42:00,
2013-01-30 17:47:00,-7.9,-14.0,30.12,WNW,302,10.0,15.0,74,0.00,,CLR,0.00,0.00,VWS V14.00,2013-01-30 23:47:00,
2013-01-30 17:52:00,-8.0,-14.1,30.12,NW,315,13.0,15.0,74,0.00,,CLR,0.00,0.00,VWS V14.00,2013-01-30 23:52:00,
2013-01-30 17:57:00,-8.1,-14.4,30.12,NW,308,10.0,15.0,73,0.00,,CLR,0.00,0.00,VWS V14.00,2013-01-30 23:57:00,
2013-01-30 18:02:00,-8.1,-14.1,30.12,WNW,303,12.0,15.0,74,0.00,,CLR,0.00,0.00,VWS V14.00,2013-01-31 00:02:00,
2013-01-30 18:07:00,-8.2,-14.5,30.13,NW,324,13.0,16.0,73,0.00,,CLR,0.00,0.00,VWS V14.00,2013-01-31 00:07:00,
2013-01-30 18:12:00,-8.4,-14.4,30.13,NW,318,10.0,16.0,74,0.00,,CLR,0.00,0.00,VWS V14.00,2013-01-31 00:12:00,
2013-01-30 18:17:00,-8.3,-14.4,30.13,NW,317,14.0,17.0,74,0.00,,CLR,0.00,0.00,VWS V14.00,2013-01-31 00:17:00,
2013-01-30 18:22:00,-8.3,-14.6,30.13,NW,318,20.0,20.0,73,0.00,,CLR,0.00,0.00,VWS V14.00,2013-01-31 00:22:00,
2013-01-30 18:27:00,-8.3,-14.6,30.13,NW,315,14.0,20.0,73,0.00,,CLR,0.00,0.00,VWS V14.00,2013-01-31 00:27:00,
2013-01-30 18:32:00,-8.4,-14.7,30.14,NW,312,17.0,19.0,73,0.00,,CLR,0.00,0.00,VWS V14.00,2013-01-31 00:32:00,
2013-01-30 18:37:00,-8.5,-14.8,30.14,NW,312,17.0,19.0,73,0.00,,CLR,0.00,0.00,VWS V14.00,2013-01-31 00:37:00,
2013-01-30 18:43:00,-8.5,-14.8,30.13,NW,312,17.0,19.0,73,0.00,,CLR,0.00,0.00,VWS V14.00,2013-01-31 00:43:00,
2013-01-30 18:48:00,-8.6,-14.9,30.14,NW,312,17.0,19.0,73,0.00,,CLR,0.00,0.00,VWS V14.00,2013-01-31 00:48:00,
2013-01-30 18:54:00,-8.6,-14.6,30.14,NW,312,17.0,19.0,74,0.00,,CLR,0.00,0.00,VWS V14.00,2013-01-31 00:54:00,
2013-01-30 18:59:00,-8.8,-14.8,30.14,NW,312,17.0,19.0,74,0.00,,CLR,0.00,0.00,VWS V14.00,2013-01-31 00:59:00,
2013-01-30 19:04:00,-8.8,-14.6,30.14,NW,312,17.0,17.0,75,0.00,,CLR,0.00,0.00,VWS V14.00,2013-01-31 01:04:00,
2013-01-30 19:09:00,-9.0,-14.8,30.14,NW,312,17.0,17.0,75,0.00,,CLR,0.00,0.00,VWS V14.00,2013-01-31 01:09:00,
2013-01-30 19:14:00,-9.1,-14.9,30.14,NW,312,17.0,17.0,75,0.00,,CLR,0.00,0.00,VWS V14.00,2013-01-31 01:14:00,
2013-01-30 19:19:00,-9.2,-15.0,30.14,NW,319,14.0,17.0,75,0.00,,CLR,0.00,0.00,VWS V14.00,2013-01-31 01:19:00,
2013-01-30 19:24:00,-9.3,-15.1,30.14,NW,326,13.0,20.0,75,0.00,,CLR,0.00,0.00,VWS V14.00,2013-01-31 01:24:00,
2013-01-30 19:29:00,-9.3,-14.8,30.15,NW,320,16.0,16.0,76,0.00,,CLR,0.00,0.00,VWS V14.00,2013-01-31 01:29:00,
2013-01-30 19:34:00,-9.3,-14.8,30.15,NNW,330,19.0,19.0,76,0.00,,CLR,0.00,0.00,VWS V14.00,2013-01-31 01:34:00,
2013-01-30 19:39:00,-9.3,-15.1,30.15,NNW,340,14.0,20.0,75,0.00,,CLR,0.00,0.00,VWS V14.00,2013-01-31 01:39:00,
2013-01-30 19:44:00,-9.5,-15.2,30.15,NW,320,18.0,23.0,75,0.00,,CLR,0.00,0.00,VWS V14.00,2013-01-31 01:44:00,
2013-01-30 19:49:00,-9.5,-15.2,30.15,NW,318,20.0,23.0,75,0.00,,CLR,0.00,0.00,VWS V14.00,2013-01-31 01:49:00,
2013-01-30 19:54:00,-9.5,-15.5,30.15,NW,323,19.0,23.0,74,0.00,,CLR,0.00,0.00,VWS V14.00,2013-01-31 01:54:00,
2013-01-30 19:59:00,-9.5,-15.5,30.15,NW,325,18.0,21.0,74,0.00,,CLR,0.00,0.00,VWS V14.00,2013-01-31 01:59:00,
2013-01-30 20:04:00,-9.4,-15.1,30.15,NW,322,18.0,25.0,75,0.00,,CLR,0.00,0.00,VWS V14.00,2013-01-31 02:04:00,
2013-01-30 20:09:00,-9.6,-15.4,30.16,NW,323,15.0,25.0,75,0.00,,CLR,0.00,0.00,VWS V14.00,2013-01-31 02:09:00,
2013-01-30 20:14:00,-9.7,-15.4,30.16,NW,322,15.0,25.0,75,0.00,,CLR,0.00,0.00,VWS V14.00,2013-01-31 02:14:00,
2013-01-30 20:19:00,-9.6,-15.4,30.16,NNW,328,18.0,25.0,75,0.00,,CLR,0.00,0.00,VWS V14.00,2013-01-31 02:19:00,
2013-01-30 20:24:00,-9.7,-15.4,30.16,NNW,333,19.0,25.0,75,0.00,,CLR,0.00,0.00,VWS V14.00,2013-01-31 02:24:00,
2013-01-30 20:29:00,-9.9,-15.4,30.16,NW,319,17.0,19.0,76,0.00,,CLR,0.00,0.00,VWS V14.00,2013-01-31 02:29:00,
2013-01-30 20:34:00,-10.0,-15.5,30.16,NNW,327,16.0,19.0,76,0.00,,CLR,0.00,0.00,VWS V14.00,2013-01-31 02:34:00,
2013-01-30 20:39:00,-10.0,-15.5,30.17,NW,325,17.0,20.0,76,0.00,,CLR,0.00,0.00,VWS V14.00,2013-01-31 02:39:00,
2013-01-30 20:45:00,-10.1,-15.6,30.17,NW,323,14.0,20.0,76,0.00,,CLR,0.00,0.00,VWS V14.00,2013-01-31 02:45:00,
2013-01-30 20:50:00,-10.0,-15.5,30.17,NW,323,16.0,20.0,76,0.00,,CLR,0.00,0.00,VWS V14.00,2013-01-31 02:50:00,
2013-01-30 20:55:00,-10.0,-15.5,30.17,NW,324,17.0,21.0,76,0.00,,CLR,0.00,0.00,VWS V14.00,2013-01-31 02:55:00,
2013-01-30 21:00:00,-10.0,-15.5,30.17,NNW,335,15.0,21.0,76,0.00,,CLR,0.00,0.00,VWS V14.00,2013-01-31 03:00:00,
2013-01-30 21:05:00,-10.2,-15.7,30.18,NW,320,16.0,21.0,76,0.00,,CLR,0.00,0.00,VWS V14.00,2013-01-31 03:05:00,
2013-01-30 21:10:00,-10.3,-15.8,30.18,NNW,327,15.0,21.0,76,0.00,,CLR,0.00,0.00,VWS V14.00,2013-01-31 03:10:00,
2013-01-30 21:15:00,-10.3,-16.0,30.18,NNW,329,18.0,21.0,75,0.00,,CLR,0.00,0.00,VWS V14.00,2013-01-31 03:15:00,
2013-01-30 21:20:00,-10.4,-16.1,30.18,NW,317,14.0,21.0,75,0.00,,CLR,0.00,0.00,VWS V14.00,2013-01-31 03:20:00,
2013-01-30 21:25:00,-10.6,-16.3,30.18,NW,319,13.0,21.0,75,0.00,,CLR,0.00,0.00,VWS V14.00,2013-01-31 03:25:00,
2013-01-30 21:30:00,-10.7,-16.1,30.18,NW,312,14.0,16.0,76,0.00,,CLR,0.00,0.00,VWS V14.00,2013-01-31 03:30:00,
2013-01-30 21:35:00,-10.9,-16.4,30.17,NW,318,14.0,18.0,76,0.00,,CLR,0.00,0.00,VWS V14.00,2013-01-31 03:35:00,
2013-01-30 21:40:00,-11.1,-16.5,30.17,NW,309,12.0,18.0,76,0.00,,SCT090,0.00,0.00,VWS V14.00,2013-01-31 03:40:00,
2013-01-30 21:45:00,-11.2,-16.6,30.18,NW,314,13.0,19.0,76,0.00,,SCT090,0.00,0.00,VWS V14.00,2013-01-31 03:45:00,
2013-01-30 21:50:00,-11.3,-16.7,30.18,NNW,331,11.0,19.0,76,0.00,,SCT090,0.00,0.00,VWS V14.00,2013-01-31 03:50:00,
2013-01-30 21:55:00,-11.3,-16.7,30.19,NNW,328,11.0,19.0,76,0.00,,SCT090,0.00,0.00,VWS V14.00,2013-01-31 03:55:00,
2013-01-30 22:00:00,-11.5,-16.9,30.19,NW,319,11.0,14.0,76,0.00,,SCT090,0.00,0.00,VWS V14.00,2013-01-31 04:00:00,
2013-01-30 22:05:00,-11.5,-16.9,30.19,NNW,331,11.0,16.0,76,0.00,,SCT090,0.00,0.00,VWS V14.00,2013-01-31 04:05:00,
2013-01-30 22:10:00,-11.6,-17.0,30.19,NW,319,11.0,16.0,76,0.00,,SCT090,0.00,0.00,VWS V14.00,2013-01-31 04:10:00,
2013-01-30 22:15:00,-11.8,-17.2,30.19,NNW,336,14.0,17.0,76,0.00,,SCT090,0.00,0.00,VWS V14.00,2013-01-31 04:15:00,
2013-01-30 22:20:00,-12.0,-17.4,30.19,NNW,344,13.0,17.0,76,0.00,,SCT090,0.00,0.00,VWS V14.00,2013-01-31 04:20:00,
2013-01-30 22:25:00,-12.2,-17.6,30.20,NNW,334,13.0,17.0,76,0.00,,SCT090,0.00,0.00,VWS V14.00,2013-01-31 04:25:00,
2013-01-30 22:30:00,-12.2,-17.6,30.20,NNW,342,13.0,17.0,76,0.00,,SCT090,0.00,0.00,VWS V14.00,2013-01-31 04:30:00,
2013-01-30 22:35:00,-12.4,-17.8,30.20,NNW,329,10.0,17.0,76,0.00,,SCT090,0.00,0.00,VWS V14.00,2013-01-31 04:35:00,
2013-01-30 22:40:00,-12.4,-17.5,30.21,NNW,327,14.0,17.0,77,0.00,,CLR,0.00,0.00,VWS V14.00,2013-01-31 04:40:00,
2013-01-30 22:45:00,-12.5,-17.6,30.21,NNW,332,10.0,17.0,77,0.00,,CLR,0.00,0.00,VWS V14.00,2013-01-31 04:45:00,
2013-01-30 22:50:00,-12.5,-17.6,30.21,NNW,335,12.0,17.0,77,0.00,,CLR,0.00,0.00,VWS V14.00,2013-01-31 04:50:00,
2013-01-30 22:56:00,-12.3,-17.5,30.22,NNW,330,17.0,20.0,77,0.00,,CLR,0.00,0.00,VWS V14.00,2013-01-31 04:56:00,
2013-01-30 23:01:00,-12.3,-17.5,30.22,NNW,331,14.0,19.0,77,0.00,,CLR,0.00,0.00,VWS V14.00,2013-01-31 05:01:00,
2013-01-30 23:05:00,-12.4,-17.5,30.22,NNW,331,14.0,19.0,77,0.00,,CLR,0.00,0.00,VWS V14.00,2013-01-31 05:05:00,
2013-01-30 23:07:00,-12.3,-17.7,30.23,NW,317,18.0,20.0,76,0.00,,CLR,0.00,0.00,VWS V14.00,2013-01-31 05:07:00,
2013-01-30 23:09:00,-12.4,-17.8,30.23,NW,324,18.0,20.0,76,0.00,,CLR,0.00,0.00,VWS V14.00,2013-01-31 05:09:00,
2013-01-30 23:14:00,-12.4,-17.8,30.23,NW,325,19.0,24.0,76,0.00,,CLR,0.00,0.00,VWS V14.00,2013-01-31 05:14:00,
2013-01-30 23:19:00,-12.4,-17.8,30.23,NW,320,18.0,27.0,76,0.00,,CLR,0.00,0.00,VWS V14.00,2013-01-31 05:19:00,
2013-01-30 23:24:00,-12.5,-18.2,30.24,NNW,333,16.0,27.0,75,0.00,,CLR,0.00,0.00,VWS V14.00,2013-01-31 05:24:00,
2013-01-30 23:29:00,-12.6,-18.3,30.24,NNW,331,20.0,22.0,75,0.00,,CLR,0.00,0.00,VWS V14.00,2013-01-31 05:29:00,
2013-01-30 23:34:00,-12.7,-18.4,30.24,NNW,330,19.0,24.0,75,0.00,,CLR,0.00,0.00,VWS V14.00,2013-01-31 05:34:00,
2013-01-30 23:39:00,-12.7,-18.4,30.24,NW,324,12.0,24.0,75,0.00,,CLR,0.00,0.00,VWS V14.00,2013-01-31 05:39:00,
2013-01-30 23:44:00,-12.8,-18.5,30.25,NNW,328,14.0,24.0,75,0.00,,CLR,0.00,0.00,VWS V14.00,2013-01-31 05:44:00,
2013-01-30 23:49:00,-12.8,-18.5,30.25,NW,322,15.0,24.0,75,0.00,,CLR,0.00,0.00,VWS V14.00,2013-01-31 05:49:00,
2013-01-30 23:54:00,-12.8,-18.5,30.26,NNW,329,19.0,24.0,75,0.00,,CLR,0.00,0.00,VWS V14.00,2013-01-31 05:54:00,
2013-01-30 23:59:00,-12.8,-18.5,30.26,NW,324,10.0,15.0,75,0.00,,CLR,0.00,0.00,VWS V14.00,2013-01-31 05:59:00,